Time;durP1;ratioP1;P1;durP2;ratioP2;P2;SDS_P1;SDS_P2;PMS_P1;PMS_P2;Temp;Humidity;BMP_temperature;BMP_pressure;BME280_temperature;BME280_humidity;BME280_pressure;Samples;Min_cycle;Max_cycle;Signal;HPM_P1;HPM_P2
2022/09/28 00:00:15;;;;;;;2.28;2.03;;;17.40;99.90;;;;;;5092427;28;20437;-61
2022/09/28 00:02:41;;;;;;;2.00;1.75;;;17.30;99.90;;;;;;5093869;28;20020;-61
2022/09/28 00:05:07;;;;;;;1.65;1.10;;;17.30;99.90;;;;;;5093666;28;20467;-61
2022/09/28 00:07:32;;;;;;;1.10;1.00;;;17.30;99.90;;;;;;5093366;28;20098;-59
2022/09/28 00:09:58;;;;;;;1.63;0.82;;;17.10;99.90;;;;;;5093401;28;20555;-61
2022/09/28 00:12:24;;;;;;;0.70;0.60;;;17.10;99.90;;;;;;5093492;28;20039;-59
2022/09/28 00:14:50;;;;;;;0.70;0.70;;;17.00;99.90;;;;;;5093568;28;20509;-60
2022/09/28 00:17:15;;;;;;;0.40;0.40;;;17.10;99.90;;;;;;5093655;28;20406;-59
2022/09/28 00:19:42;;;;;;;0.47;0.40;;;17.10;99.90;;;;;;5093509;28;20020;-59
2022/09/28 00:22:08;;;;;;;0.80;0.52;;;17.10;99.90;;;;;;5093326;28;20037;-59
2022/09/28 00:24:34;;;;;;;0.40;0.40;;;17.10;99.90;;;;;;5093428;28;20045;-61
2022/09/28 00:27:01;;;;;;;0.60;0.40;;;17.10;99.90;;;;;;5093343;28;20125;-59
2022/09/28 00:29:32;;;;;;;1.17;0.40;;;17.00;99.90;;;;;;5092031;28;20441;-61
2022/09/28 00:35:20;;;;;;;0.45;0.30;;;17.00;99.90;;;;;;5093368;28;20381;-62
2022/09/28 00:37:47;;;;;;;1.00;0.40;;;16.90;99.90;;;;;;5093211;28;20025;-61
2022/09/28 00:40:13;;;;;;;0.20;0.20;;;16.80;99.90;;;;;;5093336;28;20048;-59
2022/09/28 00:42:41;;;;;;;0.63;0.20;;;16.70;99.90;;;;;;5093257;28;20109;-61
2022/09/28 00:45:08;;;;;;;0.30;0.25;;;16.70;99.90;;;;;;5093213;28;20477;-59
2022/09/28 00:47:43;;;;;;;0.10;0.10;;;16.60;99.90;;;;;;5097131;28;20020;-61
2022/09/28 00:50:30;;;;;;;0.75;0.20;;;16.60;99.90;;;;;;5097388;28;20479;-60
2022/09/28 00:53:08;;;;;;;0.20;0.20;;;16.60;99.90;;;;;;5095807;28;20381;-60
2022/09/28 00:58:58;;;;;;;0.25;0.20;;;16.60;99.90;;;;;;5097343;28;20374;-59
2022/09/28 01:01:25;;;;;;;0.40;0.25;;;16.60;99.90;;;;;;5097295;28;20144;-62
2022/09/28 01:03:51;;;;;;;0.30;0.20;;;16.60;99.90;;;;;;5097156;28;20057;-62
2022/09/28 01:09:39;;;;;;;0.10;0.10;;;16.60;99.90;;;;;;5092634;28;20082;-62
2022/09/28 01:12:05;;;;;;;0.10;0.10;;;16.70;99.90;;;;;;5097125;28;20046;-61
2022/09/28 01:14:31;;;;;;;0.30;0.20;;;16.60;99.90;;;;;;5096775;28;20078;-59
2022/09/28 01:17:11;;;;;;;0.10;0.10;;;16.70;99.90;;;;;;5096624;28;20024;-61
2022/09/28 01:19:46;;;;;;;0.35;0.20;;;16.70;99.90;;;;;;5096656;28;20059;-61
2022/09/28 01:26:02;;;;;;;0.30;0.10;;;16.70;99.90;;;;;;5096833;28;20027;-59
2022/09/28 01:28:30;;;;;;;0.28;0.20;;;16.60;99.90;;;;;;5095537;28;20043;-58
2022/09/28 01:31:09;;;;;;;0.30;0.20;;;16.60;99.90;;;;;;5096413;28;20430;-59
2022/09/28 01:33:45;;;;;;;0.93;0.17;;;16.60;99.90;;;;;;5096669;28;20431;-59
2022/09/28 01:36:19;;;;;;;0.30;0.20;;;16.60;99.90;;;;;;5096330;28;20091;-59
2022/09/28 01:39:01;;;;;;;0.15;0.10;;;16.50;99.90;;;;;;5096305;28;20539;-62
2022/09/28 01:41:29;;;;;;;0.20;0.10;;;16.60;99.90;;;;;;5096278;28;20059;-60
2022/09/28 01:43:56;;;;;;;0.10;0.10;;;16.50;99.90;;;;;;5096211;28;20024;-60
2022/09/28 01:46:38;;;;;;;0.30;0.10;;;16.60;99.90;;;;;;5096181;28;20019;-59
2022/09/28 01:49:13;;;;;;;0.10;0.10;;;16.50;99.90;;;;;;5095968;28;20024;-58
2022/09/28 01:51:44;;;;;;;0.20;0.10;;;16.50;99.90;;;;;;5096039;28;20099;-60
2022/09/28 01:54:35;;;;;;;0.15;0.15;;;16.40;99.90;;;;;;5096109;28;20016;-59
2022/09/28 01:57:24;;;;;;;0.25;0.25;;;16.30;99.90;;;;;;5095334;28;20036;-59
2022/09/28 02:00:17;;;;;;;0.10;0.10;;;16.30;99.90;;;;;;5094779;28;20060;-58
2022/09/28 02:06:15;;;;;;;0.08;0.05;;;16.40;99.90;;;;;;5096406;28;20069;-60
2022/09/28 02:08:50;;;;;;;1.55;0.10;;;16.30;99.90;;;;;;5095523;28;20027;-59
2022/09/28 02:11:19;;;;;;;0.10;0.10;;;16.20;99.90;;;;;;5095986;28;20020;-61
2022/09/28 02:14:05;;;;;;;0.22;0.20;;;16.30;99.90;;;;;;5095460;28;20024;-62
2022/09/28 02:16:41;;;;;;;3.75;0.55;;;16.30;99.90;;;;;;5095893;28;20051;-59
2022/09/28 02:19:14;;;;;;;1.17;0.20;;;16.30;99.90;;;;;;5095364;28;20115;-58
2022/09/28 02:21:45;;;;;;;0.20;0.20;;;16.30;99.90;;;;;;5095522;28;20024;-60
2022/09/28 02:24:33;;;;;;;0.20;0.20;;;16.20;99.90;;;;;;5095437;28;20096;-61
2022/09/28 02:27:05;;;;;;;0.10;0.10;;;16.20;99.90;;;;;;5095684;28;20117;-60
2022/09/28 02:32:58;;;;;;;0.30;0.22;;;16.20;99.90;;;;;;5095461;28;20497;-61
2022/09/28 02:35:23;;;;;;;0.43;0.30;;;16.20;99.90;;;;;;5095314;28;20035;-61
2022/09/28 02:37:49;;;;;;;0.30;0.17;;;16.20;99.90;;;;;;5095081;28;20028;-61
2022/09/28 02:40:18;;;;;;;0.30;0.20;;;16.20;99.90;;;;;;5095231;28;20046;-62
2022/09/28 02:43:09;;;;;;;0.25;0.25;;;16.20;99.90;;;;;;5095102;28;20012;-59
2022/09/28 02:45:40;;;;;;;0.22;0.20;;;16.20;99.90;;;;;;5095130;28;20027;-60
2022/09/28 02:48:53;;;;;;;1.92;0.90;;;16.20;99.90;;;;;;5094893;28;20532;-60
2022/09/28 02:51:30;;;;;;;1.85;0.70;;;16.20;99.90;;;;;;5093293;28;20482;-60
2022/09/28 02:54:19;;;;;;;1.67;1.00;;;16.10;99.90;;;;;;5094982;28;20031;-58
2022/09/28 02:56:45;;;;;;;2.90;0.75;;;16.00;99.90;;;;;;5094751;28;20028;-60
2022/09/28 02:59:32;;;;;;;2.83;0.98;;;16.00;99.90;;;;;;5094987;28;20035;-61
2022/09/28 03:02:31;;;;;;;1.13;0.60;;;15.90;99.90;;;;;;5094650;28;20020;-60
2022/09/28 03:05:19;;;;;;;2.25;0.80;;;15.90;99.90;;;;;;5094602;28;20035;-61
2022/09/28 03:07:58;;;;;;;1.83;0.60;;;15.80;99.90;;;;;;5094752;28;20027;-59
2022/09/28 03:10:34;;;;;;;0.98;0.40;;;15.50;99.90;;;;;;5093311;28;20079;-61
2022/09/28 03:13:00;;;;;;;1.02;0.40;;;15.60;99.90;;;;;;5094551;28;20012;-59
2022/09/28 03:15:31;;;;;;;1.95;0.30;;;15.70;99.90;;;;;;5094554;28;20055;-61
2022/09/28 03:17:58;;;;;;;0.50;0.38;;;15.70;99.90;;;;;;5094275;28;20426;-59
2022/09/28 03:20:25;;;;;;;1.58;0.73;;;15.80;99.90;;;;;;5094374;28;20020;-62
2022/09/28 03:22:50;;;;;;;0.80;0.40;;;15.70;99.90;;;;;;5094433;28;20146;-62
2022/09/28 03:25:16;;;;;;;2.35;0.98;;;15.70;99.90;;;;;;5094463;28;20469;-59
2022/09/28 03:27:42;;;;;;;1.38;0.65;;;15.80;99.90;;;;;;5094528;28;20024;-59
2022/09/28 03:33:30;;;;;;;0.77;0.45;;;15.90;99.90;;;;;;5094449;28;20078;-62
2022/09/28 03:35:56;;;;;;;1.77;0.50;;;15.90;99.90;;;;;;5094008;28;20024;-58
2022/09/28 03:38:21;;;;;;;1.23;0.60;;;15.90;99.90;;;;;;5094308;28;20028;-59
2022/09/28 03:40:59;;;;;;;1.27;0.80;;;15.80;99.90;;;;;;5094051;28;20020;-59
2022/09/28 03:43:25;;;;;;;4.03;2.95;;;15.80;99.90;;;;;;5093974;28;20024;-59
2022/09/28 03:45:53;;;;;;;4.90;2.50;;;15.90;99.90;;;;;;5094103;28;20370;-61
2022/09/28 03:51:40;;;;;;;3.25;1.58;;;15.60;99.90;;;;;;5094062;28;20058;-58
2022/09/28 03:54:06;;;;;;;1.75;1.30;;;15.70;99.90;;;;;;5093830;28;20478;-61
2022/09/28 03:56:32;;;;;;;3.47;1.40;;;15.70;99.90;;;;;;5093738;28;20474;-60
2022/09/28 03:58:57;;;;;;;2.63;1.40;;;15.70;99.90;;;;;;5093995;28;20103;-61
2022/09/28 04:01:23;;;;;;;2.05;1.55;;;15.70;99.90;;;;;;5093520;28;20478;-60
2022/09/28 04:03:56;;;;;;;2.40;1.60;;;15.70;99.90;;;;;;5093729;28;20046;-58
2022/09/28 04:06:22;;;;;;;2.47;1.30;;;15.60;99.90;;;;;;5093920;28;20032;-61
2022/09/28 04:08:48;;;;;;;3.70;3.03;;;15.50;99.90;;;;;;5093458;28;20280;-60
2022/09/28 04:11:14;;;;;;;2.00;1.60;;;15.50;99.90;;;;;;5093587;28;20426;-61
2022/09/28 04:13:39;;;;;;;1.10;1.00;;;15.40;99.90;;;;;;5093738;28;20083;-62
2022/09/28 04:16:05;;;;;;;1.27;1.15;;;15.40;99.90;;;;;;5093748;28;20024;-58
2022/09/28 04:18:32;;;;;;;0.88;0.80;;;15.50;99.90;;;;;;5093600;28;20073;-60
2022/09/28 04:21:05;;;;;;;1.88;0.98;;;15.60;99.90;;;;;;5093435;28;20031;-59
2022/09/28 04:23:31;;;;;;;2.65;1.55;;;15.60;99.90;;;;;;5093495;28;20351;-61
2022/09/28 04:25:57;;;;;;;1.55;1.33;;;15.60;99.90;;;;;;5093710;28;20050;-59
2022/09/28 04:34:30;;;;;;;4.30;3.92;;;15.50;99.90;;;;;;5093928;28;20023;-63
2022/09/28 04:36:56;;;;;;;4.03;3.72;;;15.50;99.90;;;;;;5093247;28;20020;-64
2022/09/28 04:39:21;;;;;;;4.28;3.60;;;15.50;99.90;;;;;;5093274;28;20024;-64
2022/09/28 04:41:48;;;;;;;3.58;3.28;;;15.40;99.90;;;;;;5093217;28;20020;-60
2022/09/28 04:44:13;;;;;;;3.97;3.60;;;15.40;99.90;;;;;;5093078;28;20032;-61
2022/09/28 04:46:39;;;;;;;3.70;3.40;;;15.40;99.90;;;;;;5093253;28;20027;-63
2022/09/28 04:49:05;;;;;;;3.83;3.50;;;15.40;99.90;;;;;;5093030;28;20474;-61
2022/09/28 04:51:31;;;;;;;2.63;2.42;;;15.40;99.90;;;;;;5093115;28;20069;-63
2022/09/28 04:53:57;;;;;;;3.60;3.30;;;15.40;99.90;;;;;;5093453;28;20024;-63
2022/09/28 04:56:23;;;;;;;5.95;5.40;;;15.40;99.90;;;;;;5093075;28;20024;-64
2022/09/28 04:58:48;;;;;;;4.38;4.00;;;15.40;99.90;;;;;;5092566;28;20020;-62
2022/09/28 05:01:17;;;;;;;5.57;5.07;;;15.30;99.90;;;;;;5093017;28;20020;-62
2022/09/28 05:03:43;;;;;;;9.20;7.60;;;15.30;99.90;;;;;;5093400;28;20490;-62
2022/09/28 05:06:13;;;;;;;6.68;6.07;;;15.40;99.90;;;;;;5092844;28;20024;-64
2022/09/28 05:08:39;;;;;;;6.38;5.78;;;15.30;99.90;;;;;;5092964;28;20032;-61
2022/09/28 05:11:07;;;;;;;5.65;5.10;;;15.30;99.90;;;;;;5092299;28;20032;-63
2022/09/28 05:13:40;;;;;;;5.30;4.80;;;15.30;99.90;;;;;;5092580;28;20028;-64
2022/09/28 05:16:06;;;;;;;6.53;5.50;;;15.40;99.90;;;;;;5084738;28;20112;-63
2022/09/28 05:18:32;;;;;;;6.68;5.50;;;15.30;99.90;;;;;;5072646;28;20257;-61
2022/09/28 05:20:58;;;;;;;6.40;5.80;;;15.30;99.90;;;;;;5087819;28;20024;-62
2022/09/28 05:23:24;;;;;;;7.90;7.10;;;15.30;99.90;;;;;;5091829;28;20428;-62
2022/09/28 05:25:49;;;;;;;5.95;5.43;;;15.30;99.90;;;;;;5089165;28;20034;-63
2022/09/28 05:28:24;;;;;;;5.97;5.25;;;15.20;99.90;;;;;;5087759;28;20052;-61
2022/09/28 05:30:51;;;;;;;6.80;5.65;;;15.40;99.90;;;;;;5091527;28;20039;-64
2022/09/28 05:33:17;;;;;;;7.15;6.22;;;15.40;99.90;;;;;;5092561;28;20031;-60
2022/09/28 05:35:42;;;;;;;7.25;6.55;;;15.40;99.90;;;;;;5094318;28;20020;-61
2022/09/28 05:38:08;;;;;;;6.68;6.07;;;15.40;99.90;;;;;;5095177;28;20535;-64
2022/09/28 05:40:34;;;;;;;8.27;7.40;;;15.40;99.90;;;;;;5096071;28;20493;-62
2022/09/28 05:43:00;;;;;;;8.00;7.28;;;15.50;99.90;;;;;;5095990;28;20058;-61
2022/09/28 05:45:28;;;;;;;7.28;6.57;;;15.40;99.90;;;;;;5094123;28;20028;-61
2022/09/28 05:47:54;;;;;;;7.72;7.03;;;15.40;99.90;;;;;;5076794;28;20037;-64
2022/09/28 05:50:19;;;;;;;7.63;6.93;;;15.50;99.90;;;;;;5081260;28;20037;-63
2022/09/28 05:52:45;;;;;;;8.27;7.47;;;15.50;99.90;;;;;;5085671;28;20074;-63
2022/09/28 05:55:11;;;;;;;8.75;7.65;;;15.60;99.90;;;;;;5086225;28;20029;-63
2022/09/28 05:57:37;;;;;;;8.40;7.60;;;15.60;99.90;;;;;;5075727;28;20077;-62
2022/09/28 06:00:07;;;;;;;8.10;7.30;;;15.50;99.90;;;;;;5083568;28;20420;-61
2022/09/28 06:02:34;;;;;;;6.57;5.75;;;15.50;99.90;;;;;;5091877;28;20024;-63
2022/09/28 06:05:00;;;;;;;6.97;6.28;;;15.60;99.90;;;;;;5088660;28;20035;-65
2022/09/28 06:07:25;;;;;;;6.68;6.05;;;15.80;99.90;;;;;;5090508;28;20028;-63
2022/09/28 06:09:52;;;;;;;5.10;4.60;;;15.90;99.90;;;;;;5076415;28;20055;-63
2022/09/28 06:12:18;;;;;;;5.30;4.80;;;16.00;99.90;;;;;;5094747;28;20109;-63
2022/09/28 06:14:44;;;;;;;4.65;4.25;;;15.90;99.90;;;;;;5093444;28;20038;-63
2022/09/28 06:17:10;;;;;;;4.22;3.85;;;15.80;99.90;;;;;;5082680;28;20012;-61
2022/09/28 06:19:35;;;;;;;3.10;2.90;;;15.80;99.90;;;;;;5092907;28;20027;-61
2022/09/28 06:22:01;;;;;;;3.05;2.85;;;15.70;99.90;;;;;;5087133;28;20103;-61
2022/09/28 06:24:26;;;;;;;2.70;2.50;;;15.80;99.90;;;;;;5080250;28;20024;-60
2022/09/28 06:26:52;;;;;;;2.28;2.08;;;15.90;99.90;;;;;;5077826;28;20024;-61
2022/09/28 06:29:18;;;;;;;3.47;2.80;;;16.00;99.90;;;;;;5093648;28;20024;-63
2022/09/28 06:31:46;;;;;;;2.35;2.15;;;16.30;99.90;;;;;;5090326;28;20466;-64
2022/09/28 06:34:12;;;;;;;1.92;1.80;;;18.60;99.90;;;;;;5094407;28;20016;-63
2022/09/28 06:36:38;;;;;;;2.10;1.90;;;20.60;99.90;;;;;;5094861;28;20398;-62
2022/09/28 06:39:05;;;;;;;2.22;2.00;;;20.70;99.90;;;;;;5076241;28;20033;-61
2022/09/28 06:41:31;;;;;;;1.60;1.50;;;20.00;99.90;;;;;;5073601;28;20025;-61
2022/09/28 06:43:57;;;;;;;4.13;3.72;;;19.40;99.90;;;;;;5074643;28;20024;-63
2022/09/28 06:46:24;;;;;;;3.47;3.17;;;18.90;99.90;;;;;;5074987;28;20030;-62
2022/09/28 06:48:50;;;;;;;3.47;3.17;;;18.50;99.90;;;;;;5090930;28;20031;-61
2022/09/28 06:51:15;;;;;;;3.28;2.60;;;18.20;99.90;;;;;;5091179;28;20028;-62
2022/09/28 06:53:41;;;;;;;6.13;4.38;;;17.90;99.90;;;;;;5074004;28;20020;-65
2022/09/28 06:56:09;;;;;;;3.10;2.80;;;17.60;99.90;;;;;;5073561;28;20025;-63
2022/09/28 06:58:35;;;;;;;3.10;2.90;;;17.40;99.90;;;;;;5074294;28;20393;-62
2022/09/28 07:01:01;;;;;;;3.30;3.00;;;17.10;99.90;;;;;;5078569;28;20381;-62
2022/09/28 07:03:27;;;;;;;2.95;2.72;;;17.00;99.90;;;;;;5091640;28;20027;-69
2022/09/28 07:05:55;;;;;;;2.58;2.33;;;17.00;99.90;;;;;;5074828;28;20016;-63
2022/09/28 07:08:23;;;;;;;2.53;2.33;;;17.00;99.90;;;;;;5074267;28;20031;-60
2022/09/28 07:10:55;;;;;;;2.63;2.35;;;17.10;99.90;;;;;;5085540;28;20063;-65
2022/09/28 07:13:22;;;;;;;3.00;2.80;;;17.30;99.90;;;;;;5077629;28;20035;-64
2022/09/28 07:15:48;;;;;;;3.05;2.75;;;17.20;99.90;;;;;;5076811;28;20035;-62
2022/09/28 07:18:13;;;;;;;4.25;2.70;;;17.30;99.90;;;;;;5071657;28;20017;-64
2022/09/28 07:20:39;;;;;;;2.17;1.98;;;17.40;99.90;;;;;;5071958;28;20021;-62
2022/09/28 07:23:09;;;;;;;1.90;1.80;;;17.60;99.90;;;;;;5076584;28;20036;-65
2022/09/28 07:25:35;;;;;;;2.17;1.98;;;17.60;99.90;;;;;;5075902;28;20066;-62
2022/09/28 07:28:03;;;;;;;1.80;1.70;;;17.60;99.90;;;;;;5083774;28;20398;-64
2022/09/28 07:30:32;;;;;;;3.35;2.00;;;17.40;99.90;;;;;;5084776;28;20042;-62
2022/09/28 07:32:59;;;;;;;1.92;1.73;;;17.40;99.90;;;;;;5086333;28;20086;-61
2022/09/28 07:35:24;;;;;;;1.67;1.58;;;17.50;99.90;;;;;;5072398;28;20098;-63
2022/09/28 07:37:59;;;;;;;1.48;1.38;;;20.60;99.90;;;;;;5079844;28;20287;-63
2022/09/28 07:43:11;;;;;;;1.60;1.30;;;24.30;88.50;;;;;;5089315;28;20035;-63
2022/09/28 07:45:38;;;;;;;1.63;1.52;;;26.90;71.60;;;;;;5090227;28;20035;-64
2022/09/28 07:48:04;;;;;;;1.48;1.33;;;28.50;63.40;;;;;;5088759;28;20488;-67
2022/09/28 07:50:30;;;;;;;1.10;1.10;;;29.70;59.50;;;;;;5072507;28;20052;-62
2022/09/28 07:52:56;;;;;;;1.17;1.08;;;30.90;56.40;;;;;;5065454;28;20029;-65
2022/09/28 07:55:22;;;;;;;1.10;1.05;;;31.90;51.90;;;;;;5077487;28;20093;-61
2022/09/28 07:57:55;;;;;;;1.10;0.80;;;32.50;47.20;;;;;;5077030;28;20496;-62
2022/09/28 08:00:20;;;;;;;1.02;0.80;;;32.80;47.00;;;;;;5076937;28;20310;-63
2022/09/28 08:02:47;;;;;;;0.70;0.70;;;33.20;45.90;;;;;;5087282;28;20028;-61
2022/09/28 08:05:12;;;;;;;0.63;0.60;;;33.50;45.30;;;;;;5085584;28;20028;-60
2022/09/28 08:07:38;;;;;;;0.85;0.80;;;33.60;43.30;;;;;;5087357;28;20024;-59
2022/09/28 08:10:04;;;;;;;1.00;0.90;;;33.30;44.80;;;;;;5088717;28;20052;-58
2022/09/28 08:12:30;;;;;;;1.10;0.90;;;33.60;43.90;;;;;;5088536;28;20052;-58
2022/09/28 08:14:57;;;;;;;1.27;1.00;;;33.70;43.70;;;;;;5087789;28;20493;-60
2022/09/28 08:17:23;;;;;;;1.33;1.10;;;33.20;43.10;;;;;;5087723;28;20024;-63
2022/09/28 08:22:33;;;;;;;1.30;1.00;;;33.90;43.40;;;;;;5067059;28;20605;-62
2022/09/28 08:24:58;;;;;;;1.58;1.25;;;33.90;42.70;;;;;;5067493;28;20107;-62
2022/09/28 08:27:24;;;;;;;2.10;1.77;;;33.90;42.70;;;;;;5069725;28;20507;-60
2022/09/28 08:29:50;;;;;;;1.60;1.50;;;33.20;42.50;;;;;;5083940;28;20418;-68
2022/09/28 08:32:17;;;;;;;1.70;1.60;;;32.80;43.50;;;;;;5084055;28;20036;-63
2022/09/28 08:34:43;;;;;;;1.65;1.55;;;32.70;43.50;;;;;;5081905;28;20032;-65
2022/09/28 08:37:08;;;;;;;1.50;1.40;;;32.10;43.70;;;;;;5066603;28;20036;-61
2022/09/28 08:39:35;;;;;;;1.75;1.65;;;32.00;44.20;;;;;;5083352;28;20101;-60
2022/09/28 08:42:10;;;;;;;2.30;1.67;;;30.60;44.30;;;;;;5084559;28;20067;-62
2022/09/28 08:44:52;;;;;;;1.50;1.40;;;29.00;47.90;;;;;;5086828;28;20024;-61
2022/09/28 08:50:19;;;;;;;1.90;1.80;;;26.80;50.70;;;;;;5083212;28;20390;-60
2022/09/28 08:52:50;;;;;;;1.65;1.55;;;26.50;51.50;;;;;;5084903;28;20067;-63
2022/09/28 08:55:31;;;;;;;2.17;1.27;;;25.20;52.90;;;;;;5080661;28;20024;-62
2022/09/28 09:01:22;;;;;;;3.15;1.60;;;24.00;58.70;;;;;;5088677;28;20145;-63
2022/09/28 09:03:48;;;;;;;1.33;1.20;;;23.70;59.10;;;;;;5087516;28;20039;-63
2022/09/28 09:06:43;;;;;;;1.13;1.10;;;23.60;61.20;;;;;;5088435;28;20105;-64
2022/09/28 09:09:26;;;;;;;1.33;1.23;;;23.60;62.80;;;;;;5093404;28;20051;-63
2022/09/28 09:12:35;;;;;;;1.37;1.27;;;23.40;64.90;;;;;;5087163;28;20032;-61
2022/09/28 09:15:27;;;;;;;1.90;1.70;;;23.30;64.10;;;;;;5090942;28;20082;-64
2022/09/28 09:18:17;;;;;;;1.25;1.15;;;22.90;64.00;;;;;;5093893;28;20158;-63
2022/09/28 09:20:56;;;;;;;1.58;1.20;;;22.80;69.50;;;;;;5090741;28;20166;-63
2022/09/28 09:23:37;;;;;;;1.88;1.75;;;22.60;70.50;;;;;;5093154;28;20127;-63
2022/09/28 09:26:07;;;;;;;1.48;1.20;;;22.60;71.70;;;;;;5090725;28;20032;-64
2022/09/28 09:29:04;;;;;;;1.75;1.30;;;22.60;71.50;;;;;;5084287;28;20412;-61
2022/09/28 09:31:58;;;;;;;1.42;1.33;;;23.00;73.70;;;;;;5102887;28;20052;-63
2022/09/28 09:34:34;;;;;;;1.15;1.10;;;23.50;69.60;;;;;;5094578;28;20036;-64
2022/09/28 09:37:36;;;;;;;1.38;1.27;;;24.00;76.10;;;;;;5096103;28;20037;-62
2022/09/28 09:40:42;;;;;;;1.02;1.00;;;24.50;73.60;;;;;;5079838;28;20356;-63
2022/09/28 09:43:41;;;;;;;1.42;1.33;;;24.90;64.00;;;;;;5086572;28;20432;-64
2022/09/28 09:46:36;;;;;;;0.95;0.95;;;25.50;61.60;;;;;;5090125;28;20077;-61
2022/09/28 09:49:32;;;;;;;1.10;1.00;;;25.50;65.00;;;;;;5075258;28;20048;-61
2022/09/28 09:52:32;;;;;;;1.02;0.93;;;25.90;59.60;;;;;;5076239;28;20021;-64
2022/09/28 09:55:24;;;;;;;0.70;0.70;;;25.30;59.40;;;;;;5076580;28;20040;-63
2022/09/28 09:58:10;;;;;;;0.60;0.60;;;25.60;62.70;;;;;;5086625;28;20020;-62
2022/09/28 10:00:51;;;;;;;0.80;0.80;;;26.10;62.60;;;;;;5089202;28;20016;-62
2022/09/28 10:06:41;;;;;;;1.67;0.90;;;26.90;59.80;;;;;;5088085;28;20043;-62
2022/09/28 10:09:29;;;;;;;1.13;1.00;;;27.10;58.70;;;;;;5089484;28;20054;-63
2022/09/28 10:11:55;;;;;;;1.13;1.02;;;27.00;56.90;;;;;;5085374;28;21104;-63
2022/09/28 10:14:23;;;;;;;1.60;1.20;;;27.20;58.10;;;;;;5091566;28;20051;-63
2022/09/28 10:16:52;;;;;;;1.73;1.30;;;27.30;55.70;;;;;;5085523;28;20020;-61
2022/09/28 10:19:20;;;;;;;1.15;1.05;;;27.20;55.90;;;;;;5085352;28;20499;-62
2022/09/28 10:21:52;;;;;;;1.30;1.20;;;27.30;55.80;;;;;;5087762;28;20477;-62
2022/09/28 10:24:32;;;;;;;0.93;0.93;;;27.60;56.80;;;;;;5093414;28;20436;-63
2022/09/28 10:27:04;;;;;;;1.00;0.90;;;28.10;60.90;;;;;;5090229;28;20474;-62
2022/09/28 10:29:38;;;;;;;0.90;0.90;;;28.30;57.80;;;;;;5088168;28;20073;-60
2022/09/28 10:32:18;;;;;;;1.00;1.00;;;28.20;55.40;;;;;;5080158;28;20117;-63
2022/09/28 10:34:44;;;;;;;0.90;0.90;;;28.40;54.60;;;;;;5080781;28;20024;-61
2022/09/28 10:37:10;;;;;;;1.30;1.20;;;28.60;59.10;;;;;;5085356;28;20436;-61
2022/09/28 10:39:48;;;;;;;1.20;1.10;;;28.70;56.10;;;;;;5088912;28;20074;-63
2022/09/28 10:42:24;;;;;;;1.00;1.00;;;28.90;57.30;;;;;;5088122;28;20023;-63
2022/09/28 10:45:03;;;;;;;0.90;0.90;;;29.10;58.60;;;;;;5083721;28;20684;-62
2022/09/28 10:47:31;;;;;;;1.02;0.90;;;29.10;55.50;;;;;;5087942;28;20074;-65
2022/09/28 10:49:58;;;;;;;0.90;0.77;;;29.20;54.90;;;;;;5086961;28;20043;-63
2022/09/28 10:52:34;;;;;;;0.85;0.80;;;29.50;55.60;;;;;;5088013;28;20375;-63
2022/09/28 10:55:00;;;;;;;0.90;0.90;;;29.50;53.70;;;;;;5090132;28;20042;-62
2022/09/28 10:57:30;;;;;;;1.27;1.00;;;29.70;51.40;;;;;;5091163;28;20027;-63
2022/09/28 10:59:56;;;;;;;1.00;1.00;;;29.70;51.70;;;;;;5088778;28;20028;-64
2022/09/28 11:02:51;;;;;;;1.33;1.10;;;29.90;52.10;;;;;;5084429;28;20073;-64
2022/09/28 11:05:28;;;;;;;1.30;1.20;;;29.70;51.00;;;;;;5089285;28;20040;-66
2022/09/28 11:07:56;;;;;;;1.40;1.30;;;29.50;51.50;;;;;;5087025;28;20502;-63
2022/09/28 11:10:31;;;;;;;1.13;1.02;;;29.30;54.40;;;;;;5079248;28;20234;-64
2022/09/28 11:12:58;;;;;;;1.23;1.10;;;29.60;53.60;;;;;;5091097;28;20390;-62
2022/09/28 11:15:28;;;;;;;1.33;1.00;;;29.80;53.00;;;;;;5079815;28;20033;-61
2022/09/28 11:17:54;;;;;;;1.00;0.90;;;30.00;52.60;;;;;;5080144;28;20031;-61
2022/09/28 11:20:42;;;;;;;0.80;0.73;;;29.90;53.10;;;;;;5086537;28;20020;-63
2022/09/28 11:23:32;;;;;;;2.05;0.90;;;29.90;51.80;;;;;;5088066;28;20039;-62
2022/09/28 11:26:08;;;;;;;1.15;0.90;;;30.10;53.80;;;;;;5088513;28;20478;-60
2022/09/28 11:28:40;;;;;;;1.20;1.10;;;30.20;50.60;;;;;;5079128;28;20028;-61
2022/09/28 11:31:06;;;;;;;1.00;0.90;;;30.20;49.70;;;;;;5087220;28;20101;-60
2022/09/28 11:33:37;;;;;;;1.15;0.90;;;30.40;51.60;;;;;;5079272;28;20079;-61
2022/09/28 11:36:12;;;;;;;2.00;1.50;;;30.60;51.60;;;;;;5082173;28;20031;-61
2022/09/28 11:39:03;;;;;;;1.80;1.30;;;30.60;54.40;;;;;;5087239;28;20032;-61
2022/09/28 11:41:49;;;;;;;1.35;1.10;;;30.50;54.00;;;;;;5086373;28;20035;-61
2022/09/28 11:44:35;;;;;;;1.10;1.00;;;30.50;51.80;;;;;;5086520;28;20047;-61
2022/09/28 11:47:25;;;;;;;1.05;0.95;;;30.30;51.60;;;;;;5084608;28;20020;-60
2022/09/28 11:50:14;;;;;;;1.10;1.00;;;30.60;52.30;;;;;;5088776;28;20036;-60
2022/09/28 11:53:03;;;;;;;1.15;1.00;;;30.80;51.60;;;;;;5087378;28;20039;-61
2022/09/28 11:55:35;;;;;;;1.30;1.00;;;31.00;51.80;;;;;;5086405;28;20027;-60
2022/09/28 11:58:12;;;;;;;1.33;1.23;;;31.30;48.50;;;;;;5087028;28;20040;-61
2022/09/28 12:00:45;;;;;;;1.05;0.93;;;31.30;50.00;;;;;;5088860;28;20035;-61
2022/09/28 12:03:19;;;;;;;1.38;1.27;;;31.40;52.50;;;;;;5084959;28;20032;-62
2022/09/28 12:05:51;;;;;;;0.88;0.88;;;31.40;48.60;;;;;;5084457;28;20036;-62
2022/09/28 12:08:32;;;;;;;0.80;0.80;;;31.30;49.90;;;;;;5086952;28;20027;-60
2022/09/28 12:11:14;;;;;;;1.30;1.20;;;31.40;50.10;;;;;;5084478;28;20036;-62
2022/09/28 12:13:46;;;;;;;1.27;1.17;;;31.20;50.00;;;;;;5089671;28;20372;-60
2022/09/28 12:16:22;;;;;;;1.10;0.90;;;31.00;51.10;;;;;;5088888;28;20386;-61
2022/09/28 12:18:57;;;;;;;1.30;1.20;;;31.00;49.70;;;;;;5086159;28;20103;-60
2022/09/28 12:22:04;;;;;;;1.17;1.08;;;30.80;47.60;;;;;;5086446;28;20020;-61
2022/09/28 12:24:38;;;;;;;1.23;1.00;;;30.80;51.20;;;;;;5076233;28;20036;-60
2022/09/28 12:27:21;;;;;;;1.20;1.10;;;31.30;51.00;;;;;;5068054;28;20169;-60
2022/09/28 12:30:02;;;;;;;1.20;1.10;;;31.70;50.70;;;;;;5087472;28;20032;-62
2022/09/28 12:32:43;;;;;;;1.20;1.10;;;31.80;48.90;;;;;;5088077;28;20028;-62
2022/09/28 12:35:33;;;;;;;1.30;1.02;;;31.60;48.90;;;;;;5071324;28;20412;-60
2022/09/28 12:38:36;;;;;;;1.65;1.35;;;31.60;51.00;;;;;;5080726;28;20540;-60
2022/09/28 12:41:10;;;;;;;1.42;1.17;;;31.60;48.40;;;;;;5083160;28;20021;-61
2022/09/28 12:44:13;;;;;;;1.33;1.23;;;31.40;49.20;;;;;;5076627;28;20016;-62
2022/09/28 12:46:57;;;;;;;;;;;31.10;47.90;;;;;;5078241;28;20099;-60
2022/09/28 12:49:53;;;;;;;1.30;1.20;;;31.10;49.30;;;;;;5094158;28;20592;-59
2022/09/28 12:52:35;;;;;;;1.00;1.00;;;30.90;49.80;;;;;;5088223;28;20386;-59
2022/09/28 12:55:18;;;;;;;1.08;1.00;;;31.20;52.10;;;;;;5089092;28;20378;-59
2022/09/28 12:58:07;;;;;;;2.53;1.10;;;31.40;46.60;;;;;;5085866;28;20031;-60
2022/09/28 13:00:56;;;;;;;1.20;1.10;;;31.20;47.20;;;;;;5088690;28;20028;-62
2022/09/28 13:03:57;;;;;;;1.13;1.08;;;31.00;48.20;;;;;;5090917;28;20028;-62
2022/09/28 13:06:50;;;;;;;1.20;1.00;;;30.80;47.90;;;;;;5065560;28;20134;-61
2022/09/28 13:09:22;;;;;;;1.05;0.80;;;30.90;47.70;;;;;;5085410;28;20128;-61
2022/09/28 13:11:54;;;;;;;1.73;1.02;;;30.90;47.30;;;;;;5090941;28;20027;-60
2022/09/28 13:14:35;;;;;;;1.02;0.90;;;30.60;45.70;;;;;;5096025;28;20024;-59
2022/09/28 13:17:19;;;;;;;1.00;0.90;;;30.50;48.60;;;;;;5096593;28;20055;-62
2022/09/28 13:20:06;;;;;;;1.08;0.98;;;30.50;46.80;;;;;;5096609;28;20478;-60
2022/09/28 13:22:54;;;;;;;0.77;0.77;;;30.50;49.40;;;;;;5096483;28;20020;-60
2022/09/28 13:25:22;;;;;;;0.90;0.85;;;30.60;48.90;;;;;;5094883;28;20470;-62
2022/09/28 13:27:57;;;;;;;1.60;0.93;;;30.60;50.50;;;;;;5095427;28;20020;-60
2022/09/28 13:30:24;;;;;;;1.15;0.90;;;30.50;49.60;;;;;;5094983;28;20101;-61
2022/09/28 13:32:50;;;;;;;0.85;0.85;;;30.40;48.20;;;;;;5095492;28;20125;-62
2022/09/28 13:35:20;;;;;;;0.98;0.90;;;30.20;51.10;;;;;;5095721;28;20028;-61
2022/09/28 13:38:07;;;;;;;1.30;0.70;;;30.00;50.00;;;;;;5094258;28;20107;-61
2022/09/28 13:41:03;;;;;;;0.80;0.70;;;29.70;49.70;;;;;;5094069;28;20394;-62
2022/09/28 13:44:06;;;;;;;0.98;0.75;;;29.60;52.50;;;;;;5094460;28;20030;-60
2022/09/28 13:46:40;;;;;;;2.13;1.92;;;29.40;51.20;;;;;;5094244;28;20016;-61
2022/09/28 13:49:08;;;;;;;3.07;2.30;;;29.20;53.90;;;;;;5094082;28;20024;-61
2022/09/28 13:51:37;;;;;;;2.20;2.00;;;28.70;55.40;;;;;;5094109;28;20067;-60
2022/09/28 13:54:20;;;;;;;3.35;2.45;;;28.00;56.50;;;;;;5094886;28;20016;-59
2022/09/28 13:57:09;;;;;;;4.38;2.47;;;27.50;58.60;;;;;;5096128;28;20024;-60
2022/09/28 13:59:56;;;;;;;3.13;2.45;;;27.10;59.70;;;;;;5095897;28;20059;-61
2022/09/28 14:02:28;;;;;;;4.60;3.05;;;26.80;60.90;;;;;;5096182;28;20016;-60
2022/09/28 14:05:00;;;;;;;2.70;2.50;;;26.60;62.50;;;;;;5095837;28;20099;-62
2022/09/28 14:08:04;;;;;;;2.65;2.38;;;26.70;64.20;;;;;;5095662;28;20028;-62